Time;durP1;ratioP1;P1;durP2;ratioP2;P2;SDS_P1;SDS_P2;PMS_P1;PMS_P2;Temp;Humidity;BMP_temperature;BMP_pressure;BME280_temperature;BME280_humidity;BME280_pressure;Samples;Min_cycle;Max_cycle;Signal;HPM_P1;HPM_P2
2022/07/25 00:00:23;;;;;;;2.63;0.80;;;18.40;58.70;18.50;100660.00;;;;4956631;28;117400;-62
2022/07/25 00:02:49;;;;;;;0.70;0.70;;;18.40;58.80;18.50;100657.00;;;;4938871;28;88062;-62
2022/07/25 00:05:14;;;;;;;1.13;1.02;;;18.40;58.90;18.50;100640.00;;;;4956179;28;93183;-62
2022/07/25 00:07:40;;;;;;;0.63;0.63;;;18.40;59.00;18.50;100655.00;;;;4943381;28;118578;-63
2022/07/25 00:10:07;;;;;;;1.00;0.63;;;18.40;59.20;18.40;100654.00;;;;4956645;28;89174;-62
2022/07/25 00:12:33;;;;;;;1.05;0.95;;;18.30;59.20;18.30;100645.00;;;;4956437;28;100560;-63
2022/07/25 00:14:58;;;;;;;1.60;1.45;;;18.20;59.30;18.30;100631.00;;;;4956877;28;87805;-62
2022/07/25 00:17:24;;;;;;;1.45;1.20;;;18.00;59.40;18.20;100639.00;;;;4956961;28;88660;-62
2022/07/25 00:19:50;;;;;;;1.42;1.13;;;18.10;59.70;18.20;100630.00;;;;4956152;28;118153;-62
2022/07/25 00:22:16;;;;;;;1.10;1.00;;;18.00;59.80;18.10;100637.00;;;;4956031;28;110600;-62
2022/07/25 00:24:41;;;;;;;0.80;0.75;;;18.00;60.00;18.10;100634.00;;;;4956008;28;109287;-62
2022/07/25 00:27:07;;;;;;;0.88;0.80;;;17.90;60.10;18.00;100635.00;;;;4955487;28;105489;-63
2022/07/25 00:29:33;;;;;;;1.17;0.50;;;17.90;60.30;18.00;100630.00;;;;4955105;28;116721;-62
2022/07/25 00:31:58;;;;;;;2.70;1.20;;;17.90;60.60;18.00;100632.00;;;;4954498;28;111185;-62
2022/07/25 00:34:24;;;;;;;3.95;1.50;;;17.90;60.70;18.00;100638.00;;;;4955290;28;109734;-62
2022/07/25 00:36:50;;;;;;;1.85;1.10;;;17.80;60.80;17.90;100631.00;;;;4955521;28;117435;-62
2022/07/25 00:39:15;;;;;;;1.10;0.95;;;17.80;61.00;17.90;100632.00;;;;4954596;28;115988;-63
2022/07/25 00:41:43;;;;;;;1.52;1.40;;;17.80;61.10;17.90;100624.00;;;;4955303;28;109407;-62
2022/07/25 00:44:09;;;;;;;1.30;1.20;;;17.80;61.30;17.90;100618.00;;;;4956062;28;88088;-62
2022/07/25 00:46:37;;;;;;;1.20;1.10;;;17.80;61.50;17.80;100621.00;;;;4954007;28;109588;-63
2022/07/25 00:49:03;;;;;;;1.48;0.65;;;17.70;61.70;17.80;100623.00;;;;4956744;28;87934;-62
2022/07/25 00:51:29;;;;;;;1.15;1.05;;;17.70;62.00;17.70;100616.00;;;;4955240;28;110155;-62
2022/07/25 00:53:56;;;;;;;1.23;0.98;;;17.60;62.40;17.70;100607.00;;;;4936757;28;108899;-62
2022/07/25 00:56:23;;;;;;;1.65;0.95;;;17.60;63.00;17.60;100599.00;;;;4954072;28;120311;-62
2022/07/25 00:58:49;;;;;;;1.10;0.90;;;17.50;63.30;17.50;100608.00;;;;4954882;28;118153;-62
2022/07/25 01:01:14;;;;;;;0.80;0.80;;;17.40;63.50;17.50;100609.00;;;;4956140;28;87900;-62
2022/07/25 01:03:40;;;;;;;1.02;0.80;;;17.40;63.80;17.50;100598.00;;;;4954956;28;108493;-63
2022/07/25 01:06:07;;;;;;;0.98;0.75;;;17.40;64.00;17.50;100594.00;;;;4954476;28;116027;-62
2022/07/25 01:08:33;;;;;;;1.05;1.05;;;17.30;64.10;17.40;100602.00;;;;4956178;28;87771;-63
2022/07/25 01:10:59;;;;;;;3.08;1.48;;;17.30;64.50;17.40;100594.00;;;;4955066;28;87802;-62
2022/07/25 01:13:25;;;;;;;1.05;0.80;;;17.30;64.80;17.40;100592.00;;;;4956010;28;99326;-62
2022/07/25 01:15:51;;;;;;;1.02;0.90;;;17.30;66.00;17.40;100600.00;;;;4954463;28;118872;-63
2022/07/25 01:18:17;;;;;;;1.38;1.27;;;17.20;65.50;17.30;100595.00;;;;4953664;28;118293;-62
2022/07/25 01:20:42;;;;;;;1.50;1.10;;;17.20;65.90;17.30;100586.00;;;;4953121;28;111121;-62
2022/07/25 01:23:08;;;;;;;0.73;0.73;;;17.10;66.50;17.20;100576.00;;;;4955690;28;87830;-62
2022/07/25 01:25:34;;;;;;;2.65;1.85;;;17.10;66.90;17.20;100589.00;;;;4954322;28;117274;-62
2022/07/25 01:27:59;;;;;;;0.73;0.73;;;17.10;67.20;17.10;100579.00;;;;4958257;28;117765;-62
2022/07/25 01:30:25;;;;;;;1.98;1.13;;;17.00;67.50;17.10;100579.00;;;;4971233;28;111011;-63
2022/07/25 01:32:52;;;;;;;0.30;0.30;;;17.00;67.90;17.10;100576.00;;;;4955772;28;89166;-62
2022/07/25 01:35:17;;;;;;;1.05;0.52;;;17.00;68.00;17.10;100578.00;;;;4947142;28;87868;-62
2022/07/25 01:37:43;;;;;;;1.63;0.98;;;17.00;68.20;17.10;100573.00;;;;4955791;28;103650;-62
2022/07/25 01:40:09;;;;;;;2.05;1.35;;;16.90;68.40;17.10;100575.00;;;;4955047;28;109558;-62
2022/07/25 01:42:35;;;;;;;0.57;0.57;;;16.90;68.50;17.10;100569.00;;;;4955692;28;87766;-63
2022/07/25 01:45:01;;;;;;;1.23;0.90;;;17.00;68.80;17.10;100557.00;;;;4936185;28;89571;-62
2022/07/25 01:47:27;;;;;;;1.38;1.08;;;17.00;69.70;17.10;100555.00;;;;4936764;28;88942;-62
2022/07/25 01:49:53;;;;;;;1.40;1.08;;;17.00;69.10;17.10;100558.00;;;;4955100;28;111356;-62
2022/07/25 01:52:18;;;;;;;1.17;1.08;;;17.00;69.30;17.10;100560.00;;;;4954367;28;107092;-63
2022/07/25 01:54:44;;;;;;;1.00;0.90;;;17.00;69.50;17.10;100549.00;;;;4947408;28;112357;-63
2022/07/25 01:57:10;;;;;;;1.17;1.08;;;17.00;69.70;17.10;100555.00;;;;4954234;28;105972;-62
2022/07/25 01:59:38;;;;;;;1.27;1.17;;;17.00;69.90;17.10;100553.00;;;;4954078;28;109978;-62
2022/07/25 02:02:08;;;;;;;1.90;1.00;;;17.00;70.00;17.10;100540.00;;;;4955587;28;87146;-62
2022/07/25 02:04:35;;;;;;;1.52;0.88;;;17.00;70.40;17.10;100548.00;;;;4952066;28;117381;-63
2022/07/25 02:07:01;;;;;;;0.93;0.75;;;17.00;70.70;17.10;100544.00;;;;4954639;28;88797;-62
2022/07/25 02:09:27;;;;;;;0.60;0.60;;;17.00;70.80;17.10;100547.00;;;;4954036;28;102075;-63
2022/07/25 02:11:53;;;;;;;0.63;0.60;;;17.00;71.00;17.10;100541.00;;;;4954205;28;109068;-62
2022/07/25 02:14:19;;;;;;;1.55;0.95;;;16.90;71.20;17.10;100539.00;;;;4948296;28;88081;-62
2022/07/25 02:16:45;;;;;;;1.45;1.30;;;16.90;71.50;17.10;100538.00;;;;4952958;28;117366;-63
2022/07/25 02:19:11;;;;;;;2.00;1.15;;;17.00;71.90;17.10;100543.00;;;;4954684;28;109345;-62
2022/07/25 02:21:37;;;;;;;0.65;0.65;;;16.90;72.00;17.00;100539.00;;;;4955356;28;108862;-62
2022/07/25 02:24:03;;;;;;;1.30;0.90;;;16.90;72.00;17.00;100531.00;;;;4952448;28;118517;-62
2022/07/25 02:26:28;;;;;;;0.65;0.65;;;16.90;72.30;17.00;100529.00;;;;4932812;28;87583;-63
2022/07/25 02:28:54;;;;;;;1.30;0.90;;;16.90;72.50;17.00;100533.00;;;;4957689;28;110629;-62
2022/07/25 02:31:20;;;;;;;0.93;0.93;;;16.90;72.80;17.00;100524.00;;;;4957827;28;109486;-62
2022/07/25 02:33:45;;;;;;;0.63;0.63;;;16.90;73.30;17.00;100529.00;;;;4956548;28;119204;-63
2022/07/25 02:36:11;;;;;;;0.90;0.90;;;16.80;73.60;17.00;100532.00;;;;4956912;28;118148;-62
2022/07/25 02:38:37;;;;;;;0.80;0.80;;;16.80;73.90;16.90;100529.00;;;;4957834;28;109395;-63
2022/07/25 02:41:03;;;;;;;0.55;0.52;;;16.80;74.00;16.90;100526.00;;;;4957894;28;96545;-63
2022/07/25 02:43:29;;;;;;;0.75;0.75;;;16.80;74.20;16.90;100531.00;;;;4957077;28;107203;-62
2022/07/25 02:45:55;;;;;;;1.17;1.02;;;16.80;74.50;16.90;100526.00;;;;4957894;28;87978;-62
2022/07/25 02:48:21;;;;;;;1.65;1.13;;;16.80;74.90;16.90;100531.00;;;;4957859;28;101247;-62
2022/07/25 02:50:47;;;;;;;1.42;1.23;;;16.80;75.20;16.90;100529.00;;;;4958104;28;87073;-63
2022/07/25 02:53:12;;;;;;;0.70;0.70;;;16.80;75.50;16.80;100529.00;;;;4940010;28;87877;-62
2022/07/25 02:55:38;;;;;;;1.33;1.23;;;16.70;75.80;16.80;100521.00;;;;4956674;28;116659;-62
2022/07/25 02:58:03;;;;;;;0.60;0.55;;;16.70;76.00;16.80;100524.00;;;;4956535;28;110477;-62
2022/07/25 03:00:29;;;;;;;1.52;0.90;;;16.70;76.20;16.80;100521.00;;;;4957091;28;108103;-62
2022/07/25 03:02:56;;;;;;;1.05;0.95;;;16.70;76.40;16.80;100522.00;;;;4957672;28;89415;-62
2022/07/25 03:05:21;;;;;;;0.98;0.90;;;16.70;76.70;16.80;100516.00;;;;4957681;28;88811;-62
2022/07/25 03:07:47;;;;;;;1.65;0.90;;;16.70;77.00;16.80;100525.00;;;;4957763;28;111005;-63
2022/07/25 03:10:13;;;;;;;1.77;1.00;;;16.70;77.30;16.80;100515.00;;;;4957429;28;107768;-63
2022/07/25 03:12:40;;;;;;;0.77;0.77;;;16.70;77.50;16.70;100510.00;;;;4957856;28;88176;-62
2022/07/25 03:15:07;;;;;;;2.22;1.05;;;16.60;77.90;16.70;100507.00;;;;4957899;28;87224;-62
2022/07/25 03:17:33;;;;;;;1.05;0.90;;;16.60;78.20;16.70;100513.00;;;;4956781;28;90284;-62
2022/07/25 03:19:58;;;;;;;1.23;1.13;;;16.60;78.60;16.70;100506.00;;;;4957325;28;108929;-62
2022/07/25 03:22:25;;;;;;;0.93;0.60;;;16.60;79.20;16.70;100510.00;;;;4956589;28;96542;-63
2022/07/25 03:24:52;;;;;;;1.55;0.65;;;16.60;79.50;16.70;100510.00;;;;4956749;28;113869;-63
2022/07/25 03:27:18;;;;;;;1.05;0.68;;;16.60;79.90;16.70;100509.00;;;;4956914;28;87763;-63
2022/07/25 03:29:44;;;;;;;2.95;1.10;;;16.60;80.20;16.60;100511.00;;;;4957263;28;100192;-62
2022/07/25 03:32:10;;;;;;;1.27;0.80;;;16.50;80.40;16.60;100505.00;;;;4956281;28;91993;-63
2022/07/25 03:34:36;;;;;;;0.70;0.65;;;16.50;80.70;16.60;100506.00;;;;4956600;28;87911;-63
2022/07/25 03:37:03;;;;;;;1.67;0.80;;;16.50;80.80;16.60;100505.00;;;;4955662;28;104358;-62
2022/07/25 03:39:29;;;;;;;0.70;0.65;;;16.50;80.90;16.70;100503.00;;;;4956852;28;95355;-62
2022/07/25 03:41:55;;;;;;;0.90;0.88;;;16.50;81.20;16.70;100502.00;;;;4936792;28;117998;-62
2022/07/25 03:44:22;;;;;;;0.75;0.70;;;16.50;81.40;16.70;100500.00;;;;4956907;28;87729;-63
2022/07/25 03:46:48;;;;;;;1.35;0.95;;;16.60;81.70;16.70;100492.00;;;;4956153;28;88571;-62
2022/07/25 03:49:14;;;;;;;2.05;0.88;;;16.60;82.00;16.70;100487.00;;;;4957037;28;87725;-63
2022/07/25 03:51:40;;;;;;;1.23;1.00;;;16.60;82.40;16.70;100486.00;;;;4956268;28;88141;-62
2022/07/25 03:54:07;;;;;;;1.65;0.98;;;16.60;82.70;16.80;100489.00;;;;4954838;28;118226;-63
2022/07/25 03:56:39;;;;;;;2.50;1.30;;;16.60;82.80;16.80;100481.00;;;;4956227;28;87984;-62
2022/07/25 03:59:06;;;;;;;1.58;1.48;;;16.70;83.10;16.80;100482.00;;;;4957330;28;87689;-62
2022/07/25 04:01:32;;;;;;;1.42;1.00;;;16.70;83.50;16.80;100483.00;;;;4956527;28;107511;-63
2022/07/25 04:03:58;;;;;;;1.52;1.00;;;16.70;83.70;16.90;100476.00;;;;4937739;28;116663;-62
2022/07/25 04:06:24;;;;;;;1.35;1.20;;;16.70;83.80;16.90;100474.00;;;;4957675;28;87765;-63
2022/07/25 04:08:51;;;;;;;0.82;0.82;;;16.80;84.00;17.00;100480.00;;;;4957281;28;87933;-64
2022/07/25 04:11:16;;;;;;;1.42;0.93;;;16.80;84.20;17.00;100475.00;;;;4956029;28;90080;-63
2022/07/25 04:13:42;;;;;;;1.25;0.82;;;16.90;84.20;17.10;100473.00;;;;4956437;28;93641;-63
2022/07/25 04:16:09;;;;;;;3.60;1.52;;;16.90;85.20;17.20;100463.00;;;;4956623;28;98852;-63
2022/07/25 04:18:34;;;;;;;0.65;0.65;;;17.00;84.70;17.20;100461.00;;;;4953124;28;87824;-64
2022/07/25 04:21:01;;;;;;;1.52;1.00;;;17.00;85.00;17.30;100459.00;;;;4936896;28;102556;-64
2022/07/25 04:23:27;;;;;;;0.88;0.80;;;17.10;85.40;17.40;100462.00;;;;4956302;28;87838;-64
2022/07/25 04:25:54;;;;;;;1.20;1.00;;;17.20;85.70;17.40;100447.00;;;;4956172;28;87997;-64
2022/07/25 04:28:20;;;;;;;1.08;0.98;;;17.30;85.70;17.60;100446.00;;;;4956195;28;101461;-64
2022/07/25 04:30:45;;;;;;;0.95;0.63;;;17.40;85.90;17.60;100441.00;;;;4955127;28;112292;-64
2022/07/25 04:33:12;;;;;;;0.75;0.75;;;17.40;85.90;17.70;100444.00;;;;4955178;28;116761;-64
2022/07/25 04:35:38;;;;;;;1.15;1.05;;;17.50;86.00;17.90;100434.00;;;;4948592;28;93852;-64
2022/07/25 04:38:04;;;;;;;3.08;1.25;;;17.70;86.00;18.00;100430.00;;;;4955362;28;99722;-64
2022/07/25 04:40:30;;;;;;;1.20;1.10;;;17.70;85.90;18.00;100424.00;;;;4955603;28;112017;-64
2022/07/25 04:42:55;;;;;;;0.80;0.80;;;17.80;85.70;18.10;100421.00;;;;4955348;28;101797;-64
2022/07/25 04:45:22;;;;;;;1.20;1.05;;;17.90;85.60;18.20;100429.00;;;;4955559;28;87864;-64
2022/07/25 04:47:48;;;;;;;0.95;0.85;;;18.00;85.30;18.30;100410.00;;;;4954844;28;87909;-64
2022/07/25 04:50:15;;;;;;;1.17;0.85;;;18.10;85.20;18.40;100403.00;;;;4955507;28;88378;-64
2022/07/25 04:52:41;;;;;;;1.33;0.98;;;18.20;85.10;18.50;100405.00;;;;4956216;28;88340;-64
2022/07/25 04:55:07;;;;;;;2.85;0.80;;;18.30;84.90;18.60;100410.00;;;;4955338;28;88039;-64
2022/07/25 04:57:33;;;;;;;3.15;1.63;;;18.40;84.60;18.80;100405.00;;;;4955843;28;87618;-64
2022/07/25 04:59:59;;;;;;;2.45;0.93;;;18.60;84.40;19.00;100408.00;;;;4954879;28;101717;-64
2022/07/25 05:02:25;;;;;;;1.35;0.85;;;18.70;84.00;19.20;100397.00;;;;4954830;28;118072;-64
2022/07/25 05:04:51;;;;;;;1.70;1.27;;;18.90;83.60;19.30;100405.00;;;;4955299;28;87845;-64
2022/07/25 05:07:17;;;;;;;1.23;0.95;;;19.10;83.00;19.50;100405.00;;;;4953443;28;87915;-64
2022/07/25 05:09:43;;;;;;;1.33;1.17;;;19.30;82.40;19.60;100405.00;;;;4954621;28;118139;-64
2022/07/25 05:12:09;;;;;;;1.83;0.98;;;19.40;81.90;19.80;100400.00;;;;4955690;28;87764;-64
2022/07/25 05:14:35;;;;;;;1.45;1.23;;;19.50;81.50;19.90;100390.00;;;;4954597;28;110527;-64
2022/07/25 05:17:00;;;;;;;0.73;0.50;;;19.70;81.00;20.10;100388.00;;;;4954416;28;100554;-64
2022/07/25 05:19:26;;;;;;;1.27;0.90;;;19.90;80.60;20.30;100387.00;;;;4954138;28;117762;-64
2022/07/25 05:21:52;;;;;;;1.70;1.10;;;20.00;79.90;20.40;100391.00;;;;4953915;28;116128;-64
2022/07/25 05:24:17;;;;;;;1.45;1.35;;;20.20;79.60;20.60;100383.00;;;;4953827;28;111843;-62
2022/07/25 05:26:43;;;;;;;2.05;1.17;;;20.30;79.00;20.80;100375.00;;;;4955005;28;87560;-65
2022/07/25 05:29:09;;;;;;;1.80;1.10;;;20.50;78.60;21.00;100376.00;;;;4953448;28;116176;-63
2022/07/25 05:31:35;;;;;;;1.10;1.02;;;20.70;78.00;21.20;100385.00;;;;4954660;28;88135;-65
2022/07/25 05:34:01;;;;;;;1.15;0.95;;;20.90;77.60;21.40;100383.00;;;;4937021;28;88248;-62
2022/07/25 05:36:27;;;;;;;1.83;1.13;;;21.10;76.60;21.60;100377.00;;;;4955992;28;87698;-65
2022/07/25 05:38:53;;;;;;;2.13;1.35;;;21.30;75.80;21.70;100378.00;;;;4953422;28;115168;-65
2022/07/25 05:41:19;;;;;;;2.03;1.08;;;21.40;75.10;22.00;100380.00;;;;4955348;28;87944;-65
2022/07/25 05:43:47;;;;;;;1.95;1.30;;;21.60;74.70;22.20;100378.00;;;;4954369;28;98495;-65
2022/07/25 05:46:13;;;;;;;2.85;1.10;;;21.80;74.00;22.30;100358.00;;;;4955495;28;87793;-65
2022/07/25 05:48:40;;;;;;;1.00;0.90;;;22.00;73.40;22.50;100364.00;;;;4954114;28;89251;-65
2022/07/25 05:51:06;;;;;;;1.88;1.20;;;22.20;72.50;22.70;100359.00;;;;4954695;28;110469;-65
2022/07/25 05:53:31;;;;;;;2.80;1.98;;;22.40;71.50;22.90;100356.00;;;;4954825;28;110515;-63
2022/07/25 05:55:57;;;;;;;2.22;1.65;;;22.60;71.20;23.10;100367.00;;;;4956810;28;88026;-63
2022/07/25 05:58:23;;;;;;;1.40;1.15;;;22.80;70.70;23.40;100372.00;;;;4940271;28;116894;-64
2022/07/25 06:00:49;;;;;;;1.30;1.20;;;23.10;70.10;23.50;100364.00;;;;4954217;28;117210;-63
2022/07/25 06:03:17;;;;;;;1.13;1.02;;;23.20;69.30;23.70;100359.00;;;;4955280;28;87836;-63
2022/07/25 06:05:44;;;;;;;1.40;1.17;;;23.40;68.90;24.00;100354.00;;;;4954791;28;86944;-64
2022/07/25 06:08:09;;;;;;;1.17;1.08;;;23.60;68.40;24.20;100353.00;;;;4954154;28;88778;-64
2022/07/25 06:10:35;;;;;;;1.58;1.02;;;23.90;67.90;24.50;100365.00;;;;4953607;28;117841;-64
2022/07/25 06:13:01;;;;;;;1.95;1.48;;;24.20;67.00;24.80;100371.00;;;;4954479;28;110016;-64
2022/07/25 06:15:26;;;;;;;2.22;1.58;;;24.40;66.10;25.10;100354.00;;;;4953978;28;109198;-65
2022/07/25 06:17:52;;;;;;;1.40;1.30;;;24.70;65.00;25.40;100354.00;;;;4953726;28;116684;-65
2022/07/25 06:20:18;;;;;;;2.38;1.45;;;25.00;64.50;25.70;100349.00;;;;4954473;28;108856;-64
2022/07/25 06:22:43;;;;;;;1.77;1.27;;;25.30;63.00;26.00;100353.00;;;;4954483;28;110626;-64
2022/07/25 06:25:09;;;;;;;1.45;1.08;;;25.60;62.40;26.20;100349.00;;;;4954096;28;108848;-64
2022/07/25 06:27:36;;;;;;;1.17;1.08;;;25.80;61.50;26.50;100337.00;;;;4954157;28;89213;-64
2022/07/25 06:30:04;;;;;;;1.58;1.25;;;26.10;60.90;26.90;100341.00;;;;4955106;28;87887;-64
2022/07/25 06:32:30;;;;;;;3.30;0.98;;;26.50;60.30;27.30;100338.00;;;;4946318;28;98711;-64
2022/07/25 06:34:56;;;;;;;2.08;1.65;;;26.90;59.60;27.60;100338.00;;;;4953678;28;108281;-65
2022/07/25 06:37:21;;;;;;;1.30;1.20;;;27.20;59.00;27.90;100337.00;;;;4952210;28;119773;-64
2022/07/25 06:39:47;;;;;;;1.63;1.52;;;27.50;58.40;28.20;100330.00;;;;4953896;28;89240;-65
2022/07/25 06:42:13;;;;;;;3.13;1.77;;;27.80;57.80;28.50;100325.00;;;;4953540;28;110338;-64
2022/07/25 06:44:38;;;;;;;3.35;2.25;;;28.10;55.60;28.70;100321.00;;;;4954896;28;87893;-65
2022/07/25 06:47:04;;;;;;;3.88;2.38;;;28.30;53.10;28.80;100325.00;;;;4952973;28;117731;-65
2022/07/25 06:49:30;;;;;;;2.70;1.55;;;28.40;52.10;28.90;100313.00;;;;4953307;28;115036;-64
2022/07/25 06:51:56;;;;;;;4.68;2.20;;;28.60;51.20;29.00;100311.00;;;;4953228;28;109443;-65
2022/07/25 06:54:22;;;;;;;3.10;2.35;;;28.70;49.50;29.10;100308.00;;;;4961228;28;106775;-64
2022/07/25 06:56:48;;;;;;;3.80;2.30;;;28.80;49.50;29.20;100300.00;;;;4973786;28;88961;-65
2022/07/25 06:59:13;;;;;;;3.75;2.42;;;28.80;48.60;29.30;100303.00;;;;4968034;28;87977;-64
2022/07/25 07:01:39;;;;;;;7.03;2.63;;;29.00;48.90;29.40;100308.00;;;;4952528;28;99417;-64
2022/07/25 07:04:05;;;;;;;2.40;2.03;;;29.00;49.00;29.60;100304.00;;;;4954130;28;87679;-64
2022/07/25 07:06:31;;;;;;;2.97;2.15;;;29.20;48.60;29.90;100306.00;;;;4953499;28;88536;-63
2022/07/25 07:08:57;;;;;;;3.10;2.58;;;29.50;48.20;30.10;100303.00;;;;4955444;28;88420;-63
2022/07/25 07:11:23;;;;;;;3.65;2.47;;;29.70;47.00;30.20;100302.00;;;;4956879;28;111083;-64
2022/07/25 07:13:49;;;;;;;3.60;2.75;;;29.80;46.40;30.30;100304.00;;;;4957559;28;87878;-64
2022/07/25 07:16:14;;;;;;;2.80;1.98;;;29.90;46.30;30.40;100307.00;;;;4956538;28;88726;-65
2022/07/25 07:18:40;;;;;;;2.75;2.17;;;30.00;45.80;30.50;100303.00;;;;4955928;28;118294;-64
2022/07/25 07:21:06;;;;;;;2.53;2.25;;;30.10;45.80;30.70;100299.00;;;;4956392;28;109715;-64
2022/07/25 07:23:32;;;;;;;4.60;2.40;;;30.30;45.80;30.80;100295.00;;;;4956646;28;87781;-64
2022/07/25 07:25:57;;;;;;;2.85;2.33;;;30.40;45.30;31.00;100299.00;;;;4955206;28;118343;-63
2022/07/25 07:28:23;;;;;;;3.20;2.38;;;30.60;45.10;31.20;100295.00;;;;4955619;28;118309;-65
2022/07/25 07:30:49;;;;;;;4.93;3.38;;;30.80;44.60;31.30;100292.00;;;;4956443;28;109500;-64
2022/07/25 07:33:14;;;;;;;2.65;2.15;;;30.90;43.40;31.30;100299.00;;;;4938419;28;99400;-64
2022/07/25 07:35:43;;;;;;;6.47;2.95;;;30.90;43.80;31.40;100291.00;;;;4938515;28;88887;-64
2022/07/25 07:38:09;;;;;;;2.42;2.10;;;31.00;43.30;31.50;100295.00;;;;4956115;28;88476;-63
2022/07/25 07:40:35;;;;;;;2.75;2.45;;;31.10;43.00;31.60;100297.00;;;;4956320;28;104521;-64
2022/07/25 07:43:02;;;;;;;2.95;2.25;;;31.20;42.70;31.60;100296.00;;;;4956288;28;108474;-63
2022/07/25 07:45:29;;;;;;;2.30;2.03;;;31.30;42.40;31.60;100292.00;;;;4955519;28;89406;-64
2022/07/25 07:47:55;;;;;;;4.63;2.47;;;31.30;42.30;31.70;100295.00;;;;4957065;28;88004;-64
2022/07/25 07:50:26;;;;;;;2.20;2.00;;;31.30;42.40;31.80;100309.00;;;;4956514;28;88685;-64
2022/07/25 07:52:54;;;;;;;3.40;2.13;;;31.40;41.80;31.90;100301.00;;;;4957415;28;87638;-64
2022/07/25 07:58:06;;;;;;;3.28;2.80;;;31.60;41.70;32.10;100292.00;;;;4968834;28;87787;-65
2022/07/25 08:00:35;;;;;;;6.93;2.58;;;31.70;41.70;32.20;100291.00;;;;4938521;28;87855;-65
2022/07/25 08:03:02;;;;;;;4.53;2.70;;;31.90;41.30;32.30;100290.00;;;;4956280;28;87634;-65
2022/07/25 08:05:31;;;;;;;5.72;2.53;;;31.90;40.80;32.30;100289.00;;;;4956068;28;89073;-65
2022/07/25 08:07:58;;;;;;;2.72;2.38;;;32.00;40.80;32.40;100284.00;;;;4937987;28;87786;-65
2022/07/25 08:10:30;;;;;;;2.10;1.65;;;32.10;40.80;32.50;100283.00;;;;4956742;28;87920;-65
2022/07/25 08:12:56;;;;;;;2.25;2.05;;;32.20;41.10;32.50;100281.00;;;;4956879;28;87578;-64
2022/07/25 08:15:23;;;;;;;3.40;2.38;;;32.20;40.40;32.70;100289.00;;;;4954949;28;104437;-64
2022/07/25 08:17:50;;;;;;;3.40;2.25;;;32.30;40.40;32.80;100283.00;;;;4937079;28;90899;-65
2022/07/25 08:20:18;;;;;;;4.88;3.00;;;32.40;40.70;33.00;100275.00;;;;4937465;28;87953;-64
2022/07/25 08:22:47;;;;;;;2.78;2.17;;;32.50;40.50;33.20;100283.00;;;;4955534;28;100116;-65
2022/07/25 08:25:16;;;;;;;3.42;2.08;;;32.70;39.70;33.30;100274.00;;;;4963988;28;89170;-64
2022/07/25 08:27:42;;;;;;;2.90;2.13;;;32.80;39.60;33.40;100281.00;;;;4962698;28;107146;-65
2022/07/25 08:30:09;;;;;;;3.17;2.80;;;33.00;39.20;33.50;100276.00;;;;4955474;28;87831;-64
2022/07/25 08:32:55;;;;;;;3.92;2.00;;;33.10;39.50;33.70;100277.00;;;;4954929;28;87222;-65
2022/07/25 08:35:23;;;;;;;2.20;1.83;;;33.30;38.70;33.70;100282.00;;;;4955225;28;107728;-66
2022/07/25 08:37:50;;;;;;;2.30;1.67;;;33.30;38.30;33.70;100269.00;;;;4955864;28;89241;-64
2022/07/25 08:40:18;;;;;;;4.13;2.25;;;33.30;38.20;33.70;100272.00;;;;4955692;28;95491;-65
2022/07/25 08:42:45;;;;;;;3.28;2.40;;;33.30;38.50;33.80;100274.00;;;;4955424;28;90826;-65
2022/07/25 08:45:15;;;;;;;3.80;2.03;;;33.40;38.60;34.00;100267.00;;;;4936562;28;116311;-65
2022/07/25 08:47:40;;;;;;;2.50;2.30;;;33.60;38.30;34.10;100269.00;;;;4955946;28;88132;-65
2022/07/25 08:50:13;;;;;;;2.75;2.33;;;33.70;37.80;34.10;100265.00;;;;4956375;28;87752;-65
2022/07/25 08:52:42;;;;;;;3.35;1.92;;;33.70;37.70;34.30;100264.00;;;;4957599;28;87871;-64
2022/07/25 08:55:13;;;;;;;8.50;3.08;;;33.80;37.60;34.40;100264.00;;;;4955416;28;88307;-65
2022/07/25 08:57:42;;;;;;;2.95;2.05;;;34.00;37.60;34.50;100262.00;;;;4955229;28;88658;-64
2022/07/25 09:00:13;;;;;;;2.00;1.80;;;34.10;37.70;34.70;100248.00;;;;4955389;28;87776;-64
2022/07/25 09:02:39;;;;;;;2.83;2.25;;;34.20;37.00;34.70;100257.00;;;;4956249;28;87574;-65
2022/07/25 09:05:05;;;;;;;1.98;1.77;;;34.30;36.50;34.60;100254.00;;;;4956446;28;119478;-64
2022/07/25 09:07:40;;;;;;;2.78;2.20;;;34.20;36.20;34.50;100251.00;;;;4954942;28;98822;-65
2022/07/25 09:10:20;;;;;;;2.88;1.80;;;34.20;36.20;34.50;100244.00;;;;4944920;28;109036;-64
2022/07/25 09:13:15;;;;;;;3.55;1.88;;;34.10;35.80;34.50;100237.00;;;;4955934;28;87715;-65
2022/07/25 09:15:51;;;;;;;2.42;2.22;;;34.10;36.10;34.50;100248.00;;;;4955215;28;87995;-65
2022/07/25 09:18:26;;;;;;;2.53;2.03;;;34.10;35.90;34.50;100242.00;;;;4954973;28;88141;-64
2022/07/25 09:21:00;;;;;;;2.45;2.20;;;34.20;35.70;34.50;100242.00;;;;4955910;28;87887;-65
2022/07/25 09:23:37;;;;;;;4.55;2.15;;;34.10;35.10;34.50;100224.00;;;;4955790;28;86979;-65
2022/07/25 09:26:13;;;;;;;2.95;2.42;;;34.10;35.40;34.70;100234.00;;;;4955280;28;88031;-64
2022/07/25 09:28:48;;;;;;;3.85;2.75;;;34.20;35.30;34.90;100229.00;;;;4954401;28;88604;-65
2022/07/25 09:31:16;;;;;;;2.92;2.05;;;34.40;34.90;35.10;100226.00;;;;4954220;28;94924;-65
2022/07/25 09:33:55;;;;;;;3.92;2.63;;;34.60;34.80;35.30;100222.00;;;;4954888;28;91411;-65
2022/07/25 09:36:21;;;;;;;3.03;2.20;;;34.80;34.80;35.50;100223.00;;;;4953523;28;89165;-65
2022/07/25 09:38:52;;;;;;;3.50;1.75;;;34.90;34.60;35.70;100231.00;;;;4954231;28;97171;-65
2022/07/25 09:41:17;;;;;;;3.22;2.40;;;35.10;34.40;35.80;100226.00;;;;4954512;28;87599;-65
2022/07/25 09:43:43;;;;;;;3.35;1.83;;;35.30;33.50;35.90;100227.00;;;;4954358;28;87733;-65
2022/07/25 09:46:11;;;;;;;1.60;1.50;;;35.40;32.60;35.80;100220.00;;;;4953083;28;118422;-65
2022/07/25 09:48:39;;;;;;;2.92;2.08;;;35.30;32.90;35.90;100218.00;;;;4934471;28;118119;-66
2022/07/25 09:51:05;;;;;;;2.03;1.50;;;35.40;32.70;36.00;100207.00;;;;4955478;28;87895;-65
2022/07/25 09:53:32;;;;;;;4.22;2.08;;;35.40;33.10;36.00;100206.00;;;;4954804;28;87892;-65
2022/07/25 09:55:58;;;;;;;3.58;1.65;;;35.50;33.00;36.00;100199.00;;;;4954209;28;109205;-65
2022/07/25 09:58:28;;;;;;;3.03;1.70;;;35.50;32.40;36.00;100209.00;;;;4953529;28;108528;-65
2022/07/25 10:01:01;;;;;;;2.40;1.63;;;35.50;32.80;36.10;100186.00;;;;4955742;28;87903;-65
2022/07/25 10:03:51;;;;;;;2.53;1.73;;;35.60;32.90;36.30;100191.00;;;;4937007;28;88127;-64
2022/07/25 10:06:48;;;;;;;1.95;1.75;;;35.80;32.60;36.40;100189.00;;;;4954488;28;88606;-65
2022/07/25 10:09:15;;;;;;;2.60;1.90;;;35.90;32.30;36.30;100200.00;;;;4944027;28;88330;-65
2022/07/25 10:12:04;;;;;;;2.78;1.50;;;35.80;32.20;36.20;100177.00;;;;4936851;28;88265;-64
2022/07/25 10:14:32;;;;;;;1.70;1.58;;;35.70;32.50;36.20;100174.00;;;;4954777;28;87254;-65
2022/07/25 10:16:59;;;;;;;3.65;2.50;;;35.80;33.00;36.40;100172.00;;;;4936960;28;87995;-65
2022/07/25 10:19:46;;;;;;;2.47;1.60;;;35.80;32.40;36.50;100169.00;;;;4954118;28;88342;-64
2022/07/25 10:22:13;;;;;;;2.75;1.70;;;35.90;32.20;36.60;100169.00;;;;4954118;28;88883;-64
2022/07/25 10:24:44;;;;;;;2.97;1.75;;;36.00;32.30;36.60;100150.00;;;;4954807;28;87765;-65
2022/07/25 10:27:19;;;;;;;2.40;1.27;;;36.00;32.30;36.80;100150.00;;;;4954781;28;88330;-66
2022/07/25 10:29:52;;;;;;;5.38;1.98;;;36.10;32.60;36.90;100146.00;;;;4949450;28;105559;-65
2022/07/25 10:32:17;;;;;;;2.90;2.33;;;36.30;31.60;37.00;100147.00;;;;4954290;28;87374;-65
2022/07/25 10:34:52;;;;;;;4.18;1.85;;;36.30;31.60;37.00;100145.00;;;;4953702;28;108892;-65
2022/07/25 10:37:25;;;;;;;2.20;1.75;;;36.40;31.50;37.00;100137.00;;;;4954129;28;88569;-65
2022/07/25 10:39:51;;;;;;;2.22;2.03;;;36.40;31.00;37.00;100144.00;;;;4954718;28;88695;-65
2022/07/25 10:42:20;;;;;;;2.28;1.40;;;36.40;31.30;37.10;100146.00;;;;4954233;28;110713;-65
2022/07/25 10:44:49;;;;;;;2.45;1.80;;;36.40;31.50;37.10;100144.00;;;;4957729;28;87803;-65
2022/07/25 10:47:16;;;;;;;2.97;2.25;;;36.50;31.20;37.20;100139.00;;;;4954808;28;110440;-65